createdAt,value
2018-06-10T00:00:27.999Z,9.00
2018-06-10T00:02:56.670Z,9.43
2018-06-10T00:05:24.976Z,9.83
2018-06-10T00:07:53.672Z,9.23
2018-06-10T00:10:22.389Z,9.03
2018-06-10T00:12:51.053Z,9.40
2018-06-10T00:15:19.837Z,8.80
2018-06-10T00:17:48.552Z,8.90
2018-06-10T00:20:17.420Z,9.13
2018-06-10T00:22:46.116Z,9.57
2018-06-10T00:25:14.752Z,9.83
2018-06-10T00:27:43.796Z,9.80
2018-06-10T00:30:12.489Z,10.13
2018-06-10T00:32:41.176Z,8.93
2018-06-10T00:35:09.816Z,9.90
2018-06-10T00:37:38.507Z,9.70
2018-06-10T00:40:06.792Z,9.37
2018-06-10T00:42:41.606Z,10.50
2018-06-10T00:45:11.070Z,10.53
2018-06-10T00:47:39.678Z,10.70
2018-06-10T00:50:08.478Z,10.73
2018-06-10T00:52:37.112Z,11.50
2018-06-10T00:55:05.812Z,10.67
2018-06-10T00:57:34.553Z,10.70
2018-06-10T01:00:03.221Z,11.20
2018-06-10T01:02:31.928Z,9.60
2018-06-10T01:05:00.614Z,10.00
2018-06-10T01:07:29.265Z,11.53
2018-06-10T01:09:57.969Z,11.20
2018-06-10T01:12:26.684Z,10.50
2018-06-10T01:14:55.346Z,10.10
2018-06-10T01:17:24.033Z,9.90
2018-06-10T01:19:52.396Z,10.17
2018-06-10T01:22:20.681Z,11.10
2018-06-10T01:24:49.029Z,10.07
2018-06-10T01:27:17.726Z,10.43
2018-06-10T01:29:46.407Z,10.77
2018-06-10T01:32:15.950Z,10.07
2018-06-10T01:34:44.598Z,9.87
2018-06-10T01:37:13.945Z,8.73
2018-06-10T01:39:42.618Z,10.40
2018-06-10T01:42:12.416Z,9.67
2018-06-10T01:44:41.147Z,10.60
2018-06-10T01:47:09.832Z,10.27
2018-06-10T01:49:38.535Z,10.33
2018-06-10T01:52:07.777Z,9.77
2018-06-10T01:54:36.473Z,11.40
2018-06-10T01:57:05.157Z,11.90
2018-06-10T01:59:33.810Z,10.57
2018-06-10T02:02:02.559Z,12.13
2018-06-10T02:04:31.826Z,12.27
2018-06-10T02:07:00.513Z,11.53
2018-06-10T02:09:29.210Z,12.30
2018-06-10T02:11:57.844Z,11.47
2018-06-10T02:14:26.537Z,12.10
2018-06-10T02:16:55.244Z,11.10
2018-06-10T02:19:23.918Z,11.37
2018-06-10T02:21:52.605Z,11.63
2018-06-10T02:24:21.233Z,10.43
2018-06-10T02:26:49.923Z,10.77
2018-06-10T02:29:18.573Z,11.83
2018-06-10T02:31:47.759Z,11.67
2018-06-10T02:34:16.439Z,11.20
2018-06-10T02:36:45.156Z,9.93
2018-06-10T02:39:13.784Z,9.57
2018-06-10T02:41:42.389Z,9.27
2018-06-10T02:44:11.097Z,9.40
2018-06-10T02:46:39.742Z,9.00
2018-06-10T02:49:08.426Z,9.47
2018-06-10T02:51:36.892Z,8.77
2018-06-10T02:54:05.718Z,10.13
2018-06-10T02:56:34.417Z,9.07
2018-06-10T02:59:03.101Z,9.23
2018-06-10T03:01:31.782Z,10.00
2018-06-10T03:04:00.437Z,10.33
2018-06-10T03:06:29.141Z,9.90
2018-06-10T03:08:58.542Z,10.27
2018-06-10T03:11:27.253Z,8.80
2018-06-10T03:13:56.087Z,9.70
2018-06-10T03:16:24.733Z,8.60
2018-06-10T03:18:53.484Z,9.20
2018-06-10T03:21:22.172Z,8.87
2018-06-10T03:23:50.852Z,9.90
2018-06-10T03:26:19.502Z,9.30
2018-06-10T03:28:48.226Z,9.70
2018-06-10T03:31:16.913Z,10.17
2018-06-10T03:33:45.639Z,8.53
2018-06-10T03:36:14.346Z,7.93
2018-06-10T03:38:43.046Z,8.70
2018-06-10T03:41:16.492Z,9.63
2018-06-10T03:43:45.168Z,10.23
2018-06-10T03:46:13.927Z,9.47
2018-06-10T03:48:42.211Z,10.33
2018-06-10T03:51:10.853Z,10.73
2018-06-10T03:53:39.517Z,9.83
2018-06-10T03:56:08.252Z,8.97
2018-06-10T03:58:36.902Z,9.10
2018-06-10T04:01:05.605Z,9.80
2018-06-10T04:03:34.286Z,8.47
2018-06-10T04:06:05.834Z,9.53
2018-06-10T04:08:34.561Z,9.27
2018-06-10T04:11:03.285Z,9.17
2018-06-10T04:13:31.979Z,10.70
2018-06-10T04:16:00.729Z,12.00
2018-06-10T04:18:29.459Z,13.40
2018-06-10T04:20:58.224Z,13.77
2018-06-10T04:23:26.876Z,12.30
2018-06-10T04:25:55.544Z,11.80
2018-06-10T04:28:24.201Z,11.77
2018-06-10T04:30:53.817Z,11.50
2018-06-10T04:33:22.527Z,11.00
2018-06-10T04:35:51.203Z,10.03
2018-06-10T04:38:20.209Z,9.90
2018-06-10T04:40:48.868Z,8.90
2018-06-10T04:43:17.572Z,9.30
2018-06-10T04:45:46.260Z,9.67
2018-06-10T04:48:14.945Z,9.40
2018-06-10T04:50:43.580Z,9.60
2018-06-10T04:53:11.869Z,9.13
2018-06-10T04:55:41.239Z,9.20
2018-06-10T04:58:09.885Z,8.90
2018-06-10T05:00:38.553Z,10.43
2018-06-10T05:03:07.288Z,9.27
2018-06-10T05:05:36.038Z,10.47
2018-06-10T05:08:04.738Z,10.37
2018-06-10T05:10:33.426Z,10.90
2018-06-10T05:13:02.141Z,10.70
2018-06-10T05:15:30.838Z,10.20
2018-06-10T05:17:59.193Z,9.13
2018-06-10T05:20:27.838Z,8.80
2018-06-10T05:22:56.496Z,9.33
2018-06-10T05:25:24.822Z,10.20
2018-06-10T05:27:53.505Z,10.30
2018-06-10T05:30:22.180Z,9.47
2018-06-10T05:32:50.821Z,10.50
2018-06-10T05:35:19.448Z,9.83
2018-06-10T05:37:48.148Z,9.70
2018-06-10T05:40:16.808Z,10.13
2018-06-10T05:42:45.727Z,9.30
2018-06-10T05:45:14.396Z,10.10
2018-06-10T05:47:43.401Z,10.50
2018-06-10T05:50:12.090Z,10.07
2018-06-10T05:52:40.730Z,10.37
2018-06-10T05:55:09.007Z,10.53
2018-06-10T05:57:38.508Z,10.40
2018-06-10T06:00:07.208Z,10.50
2018-06-10T06:02:35.928Z,9.50
2018-06-10T06:05:05.157Z,10.20
2018-06-10T06:07:33.841Z,11.30
2018-06-10T06:10:02.470Z,10.80
2018-06-10T06:12:31.530Z,10.37
2018-06-10T06:15:00.754Z,11.40
2018-06-10T06:17:29.429Z,10.57
2018-06-10T06:19:58.110Z,10.80
2018-06-10T06:22:26.765Z,10.80
2018-06-10T06:24:56.663Z,11.63
2018-06-10T06:27:25.456Z,11.90
2018-06-10T06:29:54.073Z,11.70
2018-06-10T06:32:22.952Z,12.20
2018-06-10T06:34:51.642Z,12.00
2018-06-10T06:37:20.318Z,11.80
2018-06-10T06:39:49.751Z,10.40
2018-06-10T06:42:18.416Z,11.30
2018-06-10T06:44:47.196Z,9.87
2018-06-10T06:47:15.890Z,11.13
2018-06-10T06:49:44.601Z,11.13
2018-06-10T06:52:13.274Z,10.90
2018-06-10T06:54:41.952Z,11.50
2018-06-10T06:57:10.641Z,10.90
2018-06-10T06:59:39.329Z,9.80
2018-06-10T07:02:08.077Z,10.70
2018-06-10T07:04:36.806Z,9.80
2018-06-10T07:07:05.960Z,9.27
2018-06-10T07:09:34.633Z,8.83
2018-06-10T07:12:04.016Z,9.37
2018-06-10T07:14:32.747Z,8.43
2018-06-10T07:17:01.744Z,8.73
2018-06-10T07:19:30.674Z,10.33
2018-06-10T07:21:59.351Z,9.80
2018-06-10T07:24:28.873Z,8.73
2018-06-10T07:26:57.564Z,8.47
2018-06-10T07:29:26.258Z,9.30
2018-06-10T07:31:54.940Z,8.17
2018-06-10T07:34:23.642Z,8.13
2018-06-10T07:36:52.687Z,6.47
2018-06-10T07:39:21.465Z,7.33
2018-06-10T07:41:50.181Z,6.67
2018-06-10T07:44:18.950Z,6.50
2018-06-10T07:46:47.640Z,6.30
2018-06-10T07:49:16.691Z,5.53
2018-06-10T07:51:45.400Z,5.53
2018-06-10T07:54:14.040Z,5.33
2018-06-10T07:56:42.748Z,5.70
2018-06-10T07:59:11.516Z,5.60
2018-06-10T08:01:40.258Z,6.57
2018-06-10T08:04:08.932Z,6.70
2018-06-10T08:06:37.562Z,4.93
2018-06-10T08:09:07.750Z,5.40
2018-06-10T08:11:36.549Z,5.90
2018-06-10T08:14:05.320Z,5.70
2018-06-10T08:16:33.587Z,6.10
2018-06-10T08:19:02.374Z,5.57
2018-06-10T08:21:31.320Z,5.20
2018-06-10T08:24:00.057Z,6.40
2018-06-10T08:26:28.807Z,5.50
2018-06-10T08:28:57.522Z,5.20
2018-06-10T08:31:25.819Z,6.00
2018-06-10T08:33:54.583Z,6.67
2018-06-10T08:36:22.871Z,6.03
2018-06-10T08:38:51.524Z,6.23
2018-06-10T08:41:20.273Z,8.73
2018-06-10T08:43:48.947Z,6.30
2018-06-10T08:46:17.678Z,6.17
2018-06-10T08:48:46.380Z,7.00
2018-06-10T08:51:15.051Z,6.70
2018-06-10T08:53:43.809Z,6.23
2018-06-10T08:56:12.488Z,6.40
2018-06-10T08:58:41.169Z,4.93
2018-06-10T09:01:10.781Z,6.00
2018-06-10T09:03:39.488Z,6.03
2018-06-10T09:06:08.174Z,4.60
2018-06-10T09:08:36.956Z,5.90
2018-06-10T09:11:05.660Z,4.90
2018-06-10T09:13:34.427Z,4.90
2018-06-10T09:16:03.098Z,6.40
2018-06-10T09:18:36.330Z,4.83
2018-06-10T09:21:05.013Z,5.90
2018-06-10T09:23:34.280Z,5.30
2018-06-10T09:26:03.073Z,5.47
2018-06-10T09:28:32.893Z,5.00
2018-06-10T09:31:01.581Z,5.73
2018-06-10T09:33:30.222Z,6.10
2018-06-10T09:35:58.991Z,5.07
2018-06-10T09:38:27.657Z,5.40
2018-06-10T09:40:56.394Z,5.57
2018-06-10T09:43:24.708Z,5.13
2018-06-10T09:45:53.386Z,5.10
2018-06-10T09:48:21.697Z,5.90
2018-06-10T09:50:50.381Z,5.70
2018-06-10T09:53:19.028Z,5.80
2018-06-10T09:55:47.691Z,7.13
2018-06-10T09:58:16.389Z,7.40
2018-06-10T10:00:45.053Z,6.50
2018-06-10T10:03:14.285Z,6.20
2018-06-10T10:05:43.002Z,6.10
2018-06-10T10:08:11.733Z,6.10
2018-06-10T10:10:40.005Z,6.20
2018-06-10T10:13:10.553Z,6.00
2018-06-10T10:15:39.281Z,6.33
2018-06-10T10:18:08.097Z,6.27
2018-06-10T10:20:36.803Z,7.00
2018-06-10T10:23:12.095Z,6.20
2018-06-10T10:25:41.377Z,6.53
2018-06-10T10:28:10.124Z,6.43
2018-06-10T10:30:38.805Z,5.83
2018-06-10T10:33:07.494Z,6.03
2018-06-10T10:35:36.693Z,6.00
2018-06-10T10:38:05.379Z,6.60
2018-06-10T10:40:34.775Z,6.23
2018-06-10T10:43:03.453Z,6.07
2018-06-10T10:45:32.119Z,7.23
2018-06-10T10:48:00.809Z,6.13
2018-06-10T10:50:29.725Z,6.90
2018-06-10T10:52:58.409Z,6.53
2018-06-10T10:55:27.107Z,6.87
2018-06-10T10:57:55.735Z,6.60
2018-06-10T11:00:24.392Z,6.93
2018-06-10T11:02:53.087Z,6.77
2018-06-10T11:05:21.816Z,6.40
2018-06-10T11:07:50.511Z,5.90
2018-06-10T11:10:20.061Z,6.20
2018-06-10T11:12:48.376Z,6.83
2018-06-10T11:15:17.072Z,6.97
2018-06-10T11:17:45.757Z,7.20
2018-06-10T11:20:14.447Z,7.30
2018-06-10T11:22:43.152Z,7.27
2018-06-10T11:25:12.425Z,5.97
2018-06-10T11:27:41.093Z,5.93
2018-06-10T11:30:09.876Z,5.57
2018-06-10T11:32:38.517Z,6.50
2018-06-10T11:35:07.289Z,7.03
2018-06-10T11:37:36.034Z,6.23
2018-06-10T11:40:04.759Z,8.27
2018-06-10T11:42:33.847Z,6.43
2018-06-10T11:45:03.257Z,6.63
2018-06-10T11:47:32.422Z,5.70
2018-06-10T11:50:01.118Z,5.67
2018-06-10T11:52:29.877Z,6.87
2018-06-10T11:54:58.618Z,6.57
2018-06-10T11:57:27.762Z,6.60
2018-06-10T11:59:56.516Z,6.30
2018-06-10T12:02:25.235Z,6.83
2018-06-10T12:04:53.902Z,7.63
2018-06-10T12:07:22.864Z,8.03
2018-06-10T12:09:52.009Z,8.03
2018-06-10T12:12:20.700Z,8.43
2018-06-10T12:14:49.411Z,8.27
2018-06-10T12:17:18.410Z,8.87
2018-06-10T12:19:47.064Z,9.77
2018-06-10T12:22:15.775Z,8.37
2018-06-10T12:24:44.112Z,7.87
2018-06-10T12:27:12.799Z,8.80
2018-06-10T12:29:41.532Z,9.20
2018-06-10T12:32:11.461Z,10.00
2018-06-10T12:34:40.169Z,9.40
2018-06-10T12:37:08.949Z,9.90
2018-06-10T12:39:38.274Z,9.10
2018-06-10T12:42:07.017Z,7.53
2018-06-10T12:44:35.744Z,7.67
2018-06-10T12:47:04.616Z,7.37
2018-06-10T12:49:33.858Z,7.53
2018-06-10T12:52:02.552Z,6.80
2018-06-10T12:54:31.300Z,7.57
2018-06-10T12:57:00.146Z,7.37
2018-06-10T12:59:28.794Z,6.40
2018-06-10T13:01:57.553Z,6.67
2018-06-10T13:04:26.298Z,8.93
2018-06-10T13:06:55.003Z,6.43
2018-06-10T13:09:23.707Z,6.90
2018-06-10T13:11:52.415Z,6.97
2018-06-10T13:14:21.114Z,6.50
2018-06-10T13:16:49.851Z,6.63
2018-06-10T13:19:19.332Z,6.47
2018-06-10T13:21:48.048Z,6.23
2018-06-10T13:24:16.756Z,6.77
2018-06-10T13:26:45.430Z,6.40
2018-06-10T13:29:14.108Z,6.57
2018-06-10T13:31:42.428Z,6.23
2018-06-10T13:34:11.133Z,6.33
2018-06-10T13:36:40.420Z,6.60
2018-06-10T13:39:09.316Z,6.13
2018-06-10T13:41:38.065Z,7.37
2018-06-10T13:44:06.758Z,8.03
2018-06-10T13:46:35.409Z,6.80
2018-06-10T13:49:03.759Z,6.53
2018-06-10T13:51:33.221Z,7.13
2018-06-10T13:54:01.614Z,6.73
2018-06-10T13:56:30.313Z,6.00
2018-06-10T13:58:59.131Z,6.40
2018-06-10T14:01:28.597Z,6.20
2018-06-10T14:03:58.150Z,7.90
2018-06-10T14:06:26.794Z,6.67
2018-06-10T14:08:55.479Z,9.17
2018-06-10T14:11:24.203Z,8.47
2018-06-10T14:13:52.942Z,6.70
2018-06-10T14:16:21.645Z,6.70
2018-06-10T14:18:50.346Z,6.97
2018-06-10T14:21:19.140Z,6.77
2018-06-10T14:23:47.806Z,6.57
2018-06-10T14:26:16.527Z,6.63
2018-06-10T14:28:45.246Z,6.77
2018-06-10T14:31:13.607Z,6.20
2018-06-10T14:33:42.334Z,6.57
2018-06-10T14:36:11.041Z,6.60
2018-06-10T14:38:39.741Z,6.43
2018-06-10T14:41:08.620Z,12.03
2018-06-10T14:43:37.341Z,9.53
2018-06-10T14:46:05.701Z,8.33
2018-06-10T14:48:34.492Z,7.23
2018-06-10T14:51:03.131Z,6.30
2018-06-10T14:53:31.813Z,6.83
2018-06-10T14:56:00.494Z,6.10
2018-06-10T14:58:29.201Z,6.10
2018-06-10T15:00:57.901Z,5.50
2018-06-10T15:03:26.534Z,6.70
2018-06-10T15:05:55.309Z,5.10
2018-06-10T15:08:24.011Z,5.37
2018-06-10T15:10:52.714Z,4.90
2018-06-10T15:13:21.414Z,4.43
2018-06-10T15:15:50.303Z,4.50
2018-06-10T15:18:19.015Z,5.07
2018-06-10T15:20:47.866Z,5.00
2018-06-10T15:23:16.574Z,5.37
2018-06-10T15:25:44.905Z,4.40
2018-06-10T15:28:13.609Z,4.57
2018-06-10T15:30:42.273Z,5.10
2018-06-10T15:33:10.962Z,5.43
2018-06-10T15:35:39.721Z,5.50
2018-06-10T15:38:08.485Z,4.63
2018-06-10T15:40:37.194Z,4.30
2018-06-10T15:43:06.679Z,4.10
2018-06-10T15:45:35.705Z,4.30
2018-06-10T15:48:04.561Z,5.03
2018-06-10T15:50:33.250Z,4.90
2018-06-10T15:53:01.989Z,5.00
2018-06-10T15:55:30.657Z,5.50
2018-06-10T15:57:59.382Z,5.67
2018-06-10T16:00:28.050Z,5.07
2018-06-10T16:02:56.870Z,5.57
2018-06-10T16:05:25.673Z,4.73
2018-06-10T16:07:54.420Z,5.97
2018-06-10T16:10:23.128Z,5.20
2018-06-10T16:12:51.824Z,5.50
2018-06-10T16:15:20.159Z,5.80
2018-06-10T16:17:49.048Z,5.17
2018-06-10T16:20:17.754Z,5.33
2018-06-10T16:22:46.445Z,6.43
2018-06-10T16:25:15.237Z,6.60
2018-06-10T16:27:43.993Z,9.83
2018-06-10T16:30:12.788Z,9.13
2018-06-10T16:32:41.537Z,8.37
2018-06-10T16:35:09.893Z,6.73
2018-06-10T16:37:38.587Z,7.57
2018-06-10T16:40:07.108Z,6.33
2018-06-10T16:42:35.758Z,7.40
2018-06-10T16:45:04.498Z,6.47
2018-06-10T16:47:33.269Z,7.33
2018-06-10T16:50:01.974Z,6.53
2018-06-10T16:52:30.681Z,7.20
2018-06-10T16:55:06.174Z,6.90
2018-06-10T16:57:34.883Z,6.33
2018-06-10T17:00:03.678Z,7.37
2018-06-10T17:02:32.365Z,7.07
2018-06-10T17:05:01.122Z,7.60
2018-06-10T17:07:29.798Z,7.40
2018-06-10T17:09:58.472Z,7.13
2018-06-10T17:12:27.201Z,6.87
2018-06-10T17:14:55.911Z,7.00
2018-06-10T17:17:25.331Z,6.83
2018-06-10T17:19:53.993Z,7.90
2018-06-10T17:22:22.673Z,7.23
2018-06-10T17:24:58.252Z,7.33
2018-06-10T17:27:27.033Z,7.17
2018-06-10T17:29:55.823Z,8.00
2018-06-10T17:32:24.581Z,6.93
2018-06-10T17:34:53.347Z,9.07
2018-06-10T17:37:22.103Z,11.27
2018-06-10T17:39:50.886Z,15.17
2018-06-10T17:42:19.600Z,13.93
2018-06-10T17:44:47.930Z,8.17
2018-06-10T17:47:16.677Z,7.20
2018-06-10T17:49:45.362Z,7.97
2018-06-10T17:52:14.149Z,7.90
2018-06-10T17:54:42.892Z,9.43
2018-06-10T17:57:11.599Z,8.03
2018-06-10T17:59:40.353Z,9.60
2018-06-10T18:02:09.070Z,8.30
2018-06-10T18:04:37.785Z,8.60
2018-06-10T18:07:06.564Z,7.37
2018-06-10T18:09:35.243Z,8.07
2018-06-10T18:12:03.518Z,8.17
2018-06-10T18:14:32.222Z,8.10
2018-06-10T18:17:05.172Z,9.23
2018-06-10T18:19:33.933Z,19.10
2018-06-10T18:22:02.686Z,31.50
2018-06-10T18:24:31.489Z,13.30
2018-06-10T18:27:00.270Z,10.90
2018-06-10T18:29:29.018Z,9.30
2018-06-10T18:31:57.774Z,9.97
2018-06-10T18:34:26.557Z,8.53
2018-06-10T18:36:55.315Z,8.77
2018-06-10T18:39:23.970Z,10.93
2018-06-10T18:41:52.674Z,10.27
2018-06-10T18:44:21.027Z,10.93
2018-06-10T18:46:49.719Z,9.00
2018-06-10T18:49:18.446Z,9.00
2018-06-10T18:51:47.517Z,9.23
2018-06-10T18:54:16.222Z,9.63
2018-06-10T18:56:44.559Z,9.30
2018-06-10T18:59:13.291Z,10.80
2018-06-10T19:01:42.021Z,21.70
2018-06-10T19:04:10.766Z,37.17
2018-06-10T19:06:39.532Z,29.30
2018-06-10T19:09:09.385Z,14.03
2018-06-10T19:11:38.137Z,9.80
2018-06-10T19:14:06.469Z,9.93
2018-06-10T19:16:35.536Z,10.53
2018-06-10T19:19:04.317Z,9.43
2018-06-10T19:21:33.764Z,7.83
2018-06-10T19:24:02.542Z,8.87
2018-06-10T19:26:31.317Z,8.20
2018-06-10T19:29:00.039Z,8.80
2018-06-10T19:31:28.762Z,7.80
2018-06-10T19:33:57.674Z,8.73
2018-06-10T19:36:26.366Z,7.90
2018-06-10T19:38:55.109Z,7.60
2018-06-10T19:41:23.865Z,8.70
2018-06-10T19:43:52.602Z,7.80
2018-06-10T19:46:21.268Z,8.53
2018-06-10T19:48:50.063Z,8.10
2018-06-10T19:51:18.841Z,8.20
2018-06-10T19:53:47.872Z,7.83
2018-06-10T19:56:16.615Z,9.20
2018-06-10T19:58:45.389Z,9.23
2018-06-10T20:01:14.146Z,9.63
2018-06-10T20:03:43.133Z,9.13
2018-06-10T20:06:11.433Z,9.90
2018-06-10T20:08:40.196Z,10.00
2018-06-10T20:11:08.556Z,9.03
2018-06-10T20:13:37.852Z,9.30
2018-06-10T20:16:06.525Z,8.67
2018-06-10T20:18:35.823Z,8.50
2018-06-10T20:21:04.629Z,8.83
2018-06-10T20:23:33.377Z,9.07
2018-06-10T20:26:01.702Z,8.37
2018-06-10T20:28:30.393Z,11.87
2018-06-10T20:30:59.455Z,8.83
2018-06-10T20:33:28.141Z,9.03
2018-06-10T20:35:57.567Z,10.53
2018-06-10T20:38:26.299Z,11.50
2018-06-10T20:40:55.042Z,10.90
2018-06-10T20:43:24.050Z,10.87
2018-06-10T20:45:52.426Z,10.10
2018-06-10T20:48:21.223Z,9.70
2018-06-10T20:50:50.496Z,10.97
2018-06-10T20:53:19.225Z,10.70
2018-06-10T20:55:48.317Z,12.10
2018-06-10T20:58:16.584Z,20.97
2018-06-10T21:00:46.986Z,18.90
2018-06-10T21:03:15.685Z,13.43
2018-06-10T21:05:44.428Z,13.20
2018-06-10T21:08:12.808Z,11.80
2018-06-10T21:10:41.575Z,12.03
2018-06-10T21:13:10.338Z,11.50
2018-06-10T21:15:39.332Z,12.40
2018-06-10T21:18:08.041Z,10.57
2018-06-10T21:20:36.776Z,11.50
2018-06-10T21:23:05.504Z,11.70
2018-06-10T21:25:34.254Z,11.70
2018-06-10T21:28:03.429Z,12.73
2018-06-10T21:30:32.760Z,14.00
2018-06-10T21:33:01.439Z,14.30
2018-06-10T21:35:30.113Z,22.47
2018-06-10T21:37:58.844Z,13.00
2018-06-10T21:40:27.508Z,11.83
2018-06-10T21:42:56.152Z,10.67
2018-06-10T21:45:24.869Z,11.20
2018-06-10T21:47:53.634Z,11.63
2018-06-10T21:50:22.273Z,11.30
2018-06-10T21:52:50.934Z,11.30
2018-06-10T21:55:20.444Z,11.20
2018-06-10T21:57:49.162Z,10.33
2018-06-10T22:00:23.597Z,10.03
2018-06-10T22:02:52.669Z,11.40
2018-06-10T22:05:21.591Z,11.10
2018-06-10T22:07:50.307Z,12.63
2018-06-10T22:10:18.994Z,11.90
2018-06-10T22:12:47.699Z,10.43
2018-06-10T22:15:16.369Z,10.00
2018-06-10T22:17:45.088Z,9.80
2018-06-10T22:20:14.461Z,10.30
2018-06-10T22:22:43.143Z,10.63
2018-06-10T22:25:11.814Z,10.40
2018-06-10T22:27:40.444Z,10.93
2018-06-10T22:30:09.145Z,10.87
2018-06-10T22:32:37.904Z,11.73
2018-06-10T22:35:06.576Z,11.67
2018-06-10T22:37:35.273Z,11.80
2018-06-10T22:40:04.022Z,12.23
2018-06-10T22:42:32.983Z,11.33
2018-06-10T22:45:01.638Z,11.07
2018-06-10T22:47:30.296Z,11.20
2018-06-10T22:49:59.660Z,11.53
2018-06-10T22:52:28.309Z,11.80
2018-06-10T22:54:57.004Z,11.63
2018-06-10T22:57:25.628Z,10.73
2018-06-10T22:59:54.301Z,11.27
2018-06-10T23:02:22.957Z,11.27
2018-06-10T23:04:52.456Z,11.60
2018-06-10T23:07:21.751Z,11.10
2018-06-10T23:09:50.072Z,11.10
2018-06-10T23:12:25.245Z,10.50
2018-06-10T23:14:53.894Z,10.97
2018-06-10T23:17:22.671Z,10.90
2018-06-10T23:19:51.301Z,10.53
2018-06-10T23:22:19.994Z,10.53
2018-06-10T23:24:48.776Z,11.23
2018-06-10T23:27:17.477Z,11.70
2018-06-10T23:29:46.191Z,11.13
2018-06-10T23:32:14.864Z,12.30
2018-06-10T23:34:43.517Z,11.40
2018-06-10T23:37:12.253Z,11.03
2018-06-10T23:39:40.887Z,11.50
2018-06-10T23:42:09.361Z,11.67
2018-06-10T23:44:38.820Z,10.90
2018-06-10T23:47:07.582Z,11.50
2018-06-10T23:49:36.589Z,12.57
2018-06-10T23:52:05.245Z,11.80
2018-06-10T23:54:33.992Z,12.23
2018-06-10T23:57:02.625Z,11.53
2018-06-10T23:59:31.313Z,13.17
